sensor_id;sensor_type;location;lat;lon;timestamp;pressure;altitude;pressure_sealevel;temperature;humidity
11314;BME280;5712;48.858;9.206;2022-07-22T00:01:25;98522.31;;;19.57;94.29
11314;BME280;5712;48.858;9.206;2022-07-22T00:03:52;98513.72;;;19.54;95.99
11314;BME280;5712;48.858;9.206;2022-07-22T00:06:18;98520.22;;;19.51;96.66
11314;BME280;5712;48.858;9.206;2022-07-22T00:08:45;98508.69;;;19.51;97.43
11314;BME280;5712;48.858;9.206;2022-07-22T00:11:11;98507.13;;;19.48;98.40
11314;BME280;5712;48.858;9.206;2022-07-22T00:13:38;98508.75;;;19.41;99.54
11314;BME280;5712;48.858;9.206;2022-07-22T00:16:06;98508.75;;;19.41;99.53
11314;BME280;5712;48.858;9.206;2022-07-22T00:18:34;98507.06;;;19.40;98.84
11314;BME280;5712;48.858;9.206;2022-07-22T00:21:00;98509.44;;;19.43;98.96
11314;BME280;5712;48.858;9.206;2022-07-22T00:23:27;98508.75;;;19.41;99.08
11314;BME280;5712;48.858;9.206;2022-07-22T00:25:53;98507.34;;;19.37;98.90
11314;BME280;5712;48.858;9.206;2022-07-22T00:28:20;98503.00;;;19.36;99.11
11314;BME280;5712;48.858;9.206;2022-07-22T00:30:46;98498.31;;;19.38;99.15
11314;BME280;5712;48.858;9.206;2022-07-22T00:33:13;98499.63;;;19.34;99.08
11314;BME280;5712;48.858;9.206;2022-07-22T00:35:41;98507.09;;;19.31;97.74
11314;BME280;5712;48.858;9.206;2022-07-22T00:38:07;98499.78;;;19.33;97.03
11314;BME280;5712;48.858;9.206;2022-07-22T00:40:34;98503.59;;;19.30;96.52
11314;BME280;5712;48.858;9.206;2022-07-22T00:43:01;98499.53;;;19.26;96.38
11314;BME280;5712;48.858;9.206;2022-07-22T00:45:27;98499.66;;;19.25;96.20
11314;BME280;5712;48.858;9.206;2022-07-22T00:47:54;98492.81;;;19.22;96.23
11314;BME280;5712;48.858;9.206;2022-07-22T00:50:20;98492.09;;;19.20;96.35
11314;BME280;5712;48.858;9.206;2022-07-22T00:52:50;98482.66;;;19.16;97.94
11314;BME280;5712;48.858;9.206;2022-07-22T00:55:17;98487.63;;;19.11;97.97
11314;BME280;5712;48.858;9.206;2022-07-22T00:57:43;98488.06;;;19.07;98.66
11314;BME280;5712;48.858;9.206;2022-07-22T01:00:13;98494.16;;;18.99;99.40
11314;BME280;5712;48.858;9.206;2022-07-22T01:02:40;98492.72;;;18.78;100.00
11314;BME280;5712;48.858;9.206;2022-07-22T01:05:07;98493.94;;;18.56;100.00
11314;BME280;5712;48.858;9.206;2022-07-22T01:07:34;98494.28;;;18.34;100.00
11314;BME280;5712;48.858;9.206;2022-07-22T01:10:05;98488.69;;;18.18;100.00
11314;BME280;5712;48.858;9.206;2022-07-22T01:12:32;98491.22;;;18.10;100.00
11314;BME280;5712;48.858;9.206;2022-07-22T01:14:59;98491.09;;;18.02;100.00
11314;BME280;5712;48.858;9.206;2022-07-22T01:17:25;98486.03;;;17.99;100.00
11314;BME280;5712;48.858;9.206;2022-07-22T01:19:52;98482.25;;;17.92;100.00
11314;BME280;5712;48.858;9.206;2022-07-22T01:22:20;98483.94;;;17.84;100.00
11314;BME280;5712;48.858;9.206;2022-07-22T01:24:47;98482.00;;;17.76;100.00
11314;BME280;5712;48.858;9.206;2022-07-22T01:27:14;98488.31;;;17.75;100.00
11314;BME280;5712;48.858;9.206;2022-07-22T01:29:40;98485.94;;;17.72;100.00
11314;BME280;5712;48.858;9.206;2022-07-22T01:32:07;98487.63;;;17.73;100.00
11314;BME280;5712;48.858;9.206;2022-07-22T01:34:33;98483.69;;;17.77;100.00
11314;BME280;5712;48.858;9.206;2022-07-22T01:36:59;98489.03;;;17.77;100.00
11314;BME280;5712;48.858;9.206;2022-07-22T01:39:27;98483.69;;;17.77;100.00
11314;BME280;5712;48.858;9.206;2022-07-22T01:41:54;98487.34;;;17.76;100.00
11314;BME280;5712;48.858;9.206;2022-07-22T01:44:20;98488.75;;;17.71;100.00
11314;BME280;5712;48.858;9.206;2022-07-22T01:46:47;98485.94;;;17.72;100.00
11314;BME280;5712;48.858;9.206;2022-07-22T01:49:13;98487.75;;;17.72;100.00
11314;BME280;5712;48.858;9.206;2022-07-22T01:51:41;98492.84;;;17.65;100.00
11314;BME280;5712;48.858;9.206;2022-07-22T01:54:08;98494.22;;;17.50;100.00
11314;BME280;5712;48.858;9.206;2022-07-22T01:56:36;98495.22;;;17.40;100.00
11314;BME280;5712;48.858;9.206;2022-07-22T01:59:02;98483.06;;;17.36;100.00
11314;BME280;5712;48.858;9.206;2022-07-22T02:01:29;98481.94;;;17.29;100.00
11314;BME280;5712;48.858;9.206;2022-07-22T02:03:55;98482.94;;;17.28;100.00
11314;BME280;5712;48.858;9.206;2022-07-22T02:06:22;98482.81;;;17.29;100.00
11314;BME280;5712;48.858;9.206;2022-07-22T02:08:49;98496.41;;;17.26;100.00
11314;BME280;5712;48.858;9.206;2022-07-22T02:11:15;98492.34;;;17.22;100.00
11314;BME280;5712;48.858;9.206;2022-07-22T02:13:44;98481.09;;;17.19;100.00
11314;BME280;5712;48.858;9.206;2022-07-22T02:16:11;98489.50;;;17.14;100.00
11314;BME280;5712;48.858;9.206;2022-07-22T02:18:37;98484.16;;;17.14;100.00
11314;BME280;5712;48.858;9.206;2022-07-22T02:21:04;98487.56;;;17.16;100.00
11314;BME280;5712;48.858;9.206;2022-07-22T02:23:31;98482.66;;;17.12;100.00
11314;BME280;5712;48.858;9.206;2022-07-22T02:25:57;98486.56;;;17.08;100.00
11314;BME280;5712;48.858;9.206;2022-07-22T02:28:24;98485.28;;;17.02;100.00
11314;BME280;5712;48.858;9.206;2022-07-22T02:30:52;98483.59;;;17.01;100.00
11314;BME280;5712;48.858;9.206;2022-07-22T02:33:18;98479.22;;;17.00;100.00
11314;BME280;5712;48.858;9.206;2022-07-22T02:35:45;98482.03;;;17.08;100.00
11314;BME280;5712;48.858;9.206;2022-07-22T02:38:11;98480.53;;;17.15;100.00
11314;BME280;5712;48.858;9.206;2022-07-22T02:40:38;98471.25;;;17.19;100.00
11314;BME280;5712;48.858;9.206;2022-07-22T02:43:05;98470.13;;;17.22;100.00
11314;BME280;5712;48.858;9.206;2022-07-22T02:45:32;98469.00;;;17.15;100.00
11314;BME280;5712;48.858;9.206;2022-07-22T02:48:00;98473.47;;;17.14;100.00
11314;BME280;5712;48.858;9.206;2022-07-22T02:50:27;98471.81;;;17.13;100.00
11314;BME280;5712;48.858;9.206;2022-07-22T02:52:53;98468.16;;;17.14;100.00
11314;BME280;5712;48.858;9.206;2022-07-22T02:55:20;98478.56;;;17.17;100.00
11314;BME280;5712;48.858;9.206;2022-07-22T02:57:46;98467.47;;;17.22;100.00
11314;BME280;5712;48.858;9.206;2022-07-22T03:00:13;98470.97;;;17.22;100.00
11314;BME280;5712;48.858;9.206;2022-07-22T03:02:40;98465.50;;;17.24;100.00
11314;BME280;5712;48.858;9.206;2022-07-22T03:05:09;98473.66;;;17.22;100.00
11314;BME280;5712;48.858;9.206;2022-07-22T03:07:35;98472.94;;;17.20;100.00
11314;BME280;5712;48.858;9.206;2022-07-22T03:10:03;98476.34;;;17.22;100.00
11314;BME280;5712;48.858;9.206;2022-07-22T03:12:30;98469.56;;;17.28;100.00
11314;BME280;5712;48.858;9.206;2022-07-22T03:14:56;98472.38;;;17.36;100.00
11314;BME280;5712;48.858;9.206;2022-07-22T03:17:23;98476.91;;;17.35;100.00
11314;BME280;5712;48.858;9.206;2022-07-22T03:19:49;98473.84;;;17.40;100.00
11314;BME280;5712;48.858;9.206;2022-07-22T03:22:17;98470.16;;;17.41;100.00
11314;BME280;5712;48.858;9.206;2022-07-22T03:24:45;98475.69;;;17.39;100.00
11314;BME280;5712;48.858;9.206;2022-07-22T03:27:11;98485.66;;;17.37;100.00
11314;BME280;5712;48.858;9.206;2022-07-22T03:29:38;98481.69;;;17.32;100.00
11314;BME280;5712;48.858;9.206;2022-07-22T03:32:04;98483.38;;;17.33;100.00
11314;BME280;5712;48.858;9.206;2022-07-22T03:34:31;98482.50;;;17.32;100.00
11314;BME280;5712;48.858;9.206;2022-07-22T03:36:57;98487.84;;;17.32;100.00
11314;BME280;5712;48.858;9.206;2022-07-22T03:39:25;98485.91;;;17.34;100.00
11314;BME280;5712;48.858;9.206;2022-07-22T03:41:51;98482.81;;;17.29;100.00
11314;BME280;5712;48.858;9.206;2022-07-22T03:44:18;98482.53;;;17.42;100.00
11314;BME280;5712;48.858;9.206;2022-07-22T03:46:44;98483.69;;;17.39;100.00
11314;BME280;5712;48.858;9.206;2022-07-22T03:49:11;98483.94;;;17.36;100.00
11314;BME280;5712;48.858;9.206;2022-07-22T03:51:37;98482.25;;;17.35;100.00
11314;BME280;5712;48.858;9.206;2022-07-22T03:54:04;98486.50;;;17.38;100.00
11314;BME280;5712;48.858;9.206;2022-07-22T03:56:32;98485.50;;;17.39;100.00
11314;BME280;5712;48.858;9.206;2022-07-22T03:58:58;98487.59;;;17.35;100.00
11314;BME280;5712;48.858;9.206;2022-07-22T04:01:25;98487.31;;;17.38;100.00
11314;BME280;5712;48.858;9.206;2022-07-22T04:03:52;98484.81;;;17.46;100.00
11314;BME280;5712;48.858;9.206;2022-07-22T04:06:18;98480.59;;;17.44;100.00
11314;BME280;5712;48.858;9.206;2022-07-22T04:08:45;98483.28;;;17.44;100.00
11314;BME280;5712;48.858;9.206;2022-07-22T04:11:11;98485.81;;;17.45;100.00
11314;BME280;5712;48.858;9.206;2022-07-22T04:13:39;98487.06;;;17.51;100.00
11314;BME280;5712;48.858;9.206;2022-07-22T04:16:06;98485.50;;;17.48;100.00
11314;BME280;5712;48.858;9.206;2022-07-22T04:18:33;98492.97;;;17.54;100.00
11314;BME280;5712;48.858;9.206;2022-07-22T04:20:59;98490.59;;;17.61;100.00
11314;BME280;5712;48.858;9.206;2022-07-22T04:23:26;98479.91;;;17.61;100.00
11314;BME280;5712;48.858;9.206;2022-07-22T04:25:52;98478.91;;;17.62;100.00
11314;BME280;5712;48.858;9.206;2022-07-22T04:28:19;98492.28;;;17.71;100.00
11314;BME280;5712;48.858;9.206;2022-07-22T04:30:47;98492.97;;;17.73;100.00
11314;BME280;5712;48.858;9.206;2022-07-22T04:33:14;98484.53;;;17.68;100.00
11314;BME280;5712;48.858;9.206;2022-07-22T04:35:40;98482.00;;;17.76;100.00
11314;BME280;5712;48.858;9.206;2022-07-22T04:38:07;98480.28;;;17.75;100.00
11314;BME280;5712;48.858;9.206;2022-07-22T04:40:33;98483.38;;;17.80;100.00
11314;BME280;5712;48.858;9.206;2022-07-22T04:43:00;98474.25;;;17.83;100.00
11314;BME280;5712;48.858;9.206;2022-07-22T04:45:26;98480.88;;;17.79;100.00
11314;BME280;5712;48.858;9.206;2022-07-22T04:47:54;98479.72;;;17.81;100.00
11314;BME280;5712;48.858;9.206;2022-07-22T04:50:21;98475.94;;;17.74;100.00
11314;BME280;5712;48.858;9.206;2022-07-22T04:52:47;98478.59;;;17.93;100.00
11314;BME280;5712;48.858;9.206;2022-07-22T04:55:14;98474.38;;;18.00;100.00
11314;BME280;5712;48.858;9.206;2022-07-22T04:57:40;98481.66;;;17.98;100.00
11314;BME280;5712;48.858;9.206;2022-07-22T05:00:08;98471.09;;;17.97;100.00
11314;BME280;5712;48.858;9.206;2022-07-22T05:02:35;98468.16;;;18.00;100.00
11314;BME280;5712;48.858;9.206;2022-07-22T05:05:03;98473.22;;;18.12;100.00
11314;BME280;5712;48.858;9.206;2022-07-22T05:07:30;98472.66;;;18.18;100.00
11314;BME280;5712;48.858;9.206;2022-07-22T05:09:56;98473.88;;;18.33;100.00
11314;BME280;5712;48.858;9.206;2022-07-22T05:12:22;98476.53;;;18.43;100.00
11314;BME280;5712;48.858;9.206;2022-07-22T05:14:49;98476.22;;;18.55;100.00
11314;BME280;5712;48.858;9.206;2022-07-22T05:17:16;98475.03;;;18.67;100.00
11314;BME280;5712;48.858;9.206;2022-07-22T05:19:42;98483.78;;;18.87;100.00
11314;BME280;5712;48.858;9.206;2022-07-22T05:22:10;98476.03;;;19.38;100.00
11314;BME280;5712;48.858;9.206;2022-07-22T05:24:36;98474.97;;;20.26;100.00
11314;BME280;5712;48.858;9.206;2022-07-22T05:27:03;98481.47;;;21.16;95.51
11314;BME280;5712;48.858;9.206;2022-07-22T05:29:30;98474.53;;;21.95;90.07
11314;BME280;5712;48.858;9.206;2022-07-22T05:31:56;98472.13;;;22.64;84.74
11314;BME280;5712;48.858;9.206;2022-07-22T05:34:23;98472.22;;;23.25;80.65
11314;BME280;5712;48.858;9.206;2022-07-22T05:36:49;98482.63;;;23.89;77.82
11314;BME280;5712;48.858;9.206;2022-07-22T05:39:17;98475.94;;;24.37;74.74
11314;BME280;5712;48.858;9.206;2022-07-22T05:41:44;98478.06;;;24.78;71.81
11314;BME280;5712;48.858;9.206;2022-07-22T05:44:11;98477.09;;;25.15;70.27
11314;BME280;5712;48.858;9.206;2022-07-22T05:46:37;98469.91;;;25.36;68.52
11314;BME280;5712;48.858;9.206;2022-07-22T05:49:04;98486.97;;;25.72;67.21
11314;BME280;5712;48.858;9.206;2022-07-22T05:51:30;98473.97;;;26.03;64.83
11314;BME280;5712;48.858;9.206;2022-07-22T05:53:57;98478.44;;;26.38;63.62
11314;BME280;5712;48.858;9.206;2022-07-22T05:56:25;98488.47;;;26.65;61.53
11314;BME280;5712;48.858;9.206;2022-07-22T05:58:51;98480.69;;;26.90;60.38
11314;BME280;5712;48.858;9.206;2022-07-22T06:01:18;98490.38;;;27.05;59.36
11314;BME280;5712;48.858;9.206;2022-07-22T06:03:44;98486.72;;;26.85;59.20
11314;BME280;5712;48.858;9.206;2022-07-22T06:06:11;98485.84;;;26.78;58.56
11314;BME280;5712;48.858;9.206;2022-07-22T06:08:37;98483.13;;;26.51;58.44
11314;BME280;5712;48.858;9.206;2022-07-22T06:11:04;98485.63;;;26.25;59.64
11314;BME280;5712;48.858;9.206;2022-07-22T06:13:32;98482.19;;;26.37;59.42
11314;BME280;5712;48.858;9.206;2022-07-22T06:15:59;98494.25;;;26.35;59.61
11314;BME280;5712;48.858;9.206;2022-07-22T06:18:26;98487.81;;;26.63;58.25
11314;BME280;5712;48.858;9.206;2022-07-22T06:20:53;98489.34;;;27.06;56.92
11314;BME280;5712;48.858;9.206;2022-07-22T06:23:19;98480.66;;;27.17;56.02
11314;BME280;5712;48.858;9.206;2022-07-22T06:25:46;98483.47;;;27.43;55.83
11314;BME280;5712;48.858;9.206;2022-07-22T06:28:12;98484.59;;;27.68;55.37
11314;BME280;5712;48.858;9.206;2022-07-22T06:30:40;98485.31;;;27.89;53.89
11314;BME280;5712;48.858;9.206;2022-07-22T06:33:07;98481.34;;;27.92;52.89
11314;BME280;5712;48.858;9.206;2022-07-22T06:35:34;98478.91;;;27.50;53.36
11314;BME280;5712;48.858;9.206;2022-07-22T06:38:00;98481.19;;;27.46;53.90
11314;BME280;5712;48.858;9.206;2022-07-22T06:40:27;98479.66;;;27.91;53.10
11314;BME280;5712;48.858;9.206;2022-07-22T06:42:53;98486.19;;;28.16;52.98
11314;BME280;5712;48.858;9.206;2022-07-22T06:45:20;98488.28;;;28.27;51.91
11314;BME280;5712;48.858;9.206;2022-07-22T06:47:48;98471.78;;;28.41;51.70
11314;BME280;5712;48.858;9.206;2022-07-22T06:50:14;98474.91;;;28.38;51.88
11314;BME280;5712;48.858;9.206;2022-07-22T06:52:41;98482.00;;;28.20;52.06
11314;BME280;5712;48.858;9.206;2022-07-22T06:55:09;98479.50;;;28.12;52.30
11314;BME280;5712;48.858;9.206;2022-07-22T06:57:36;98491.63;;;28.09;52.60
11314;BME280;5712;48.858;9.206;2022-07-22T07:00:04;98478.22;;;27.95;53.53
11314;BME280;5712;48.858;9.206;2022-07-22T07:02:32;98480.44;;;27.72;53.74
11314;BME280;5712;48.858;9.206;2022-07-22T07:05:00;98482.25;;;27.05;55.45
11314;BME280;5712;48.858;9.206;2022-07-22T07:07:27;98480.94;;;26.12;59.57
11314;BME280;5712;48.858;9.206;2022-07-22T07:09:53;98480.00;;;25.13;64.19
11314;BME280;5712;48.858;9.206;2022-07-22T07:12:20;98480.72;;;24.49;66.04
11314;BME280;5712;48.858;9.206;2022-07-22T07:14:46;98467.56;;;24.09;69.15
11314;BME280;5712;48.858;9.206;2022-07-22T07:17:13;98468.69;;;24.00;69.08
11314;BME280;5712;48.858;9.206;2022-07-22T07:19:40;98463.22;;;23.63;69.64
11314;BME280;5712;48.858;9.206;2022-07-22T07:22:08;98467.88;;;23.47;70.20
11314;BME280;5712;48.858;9.206;2022-07-22T07:24:35;98462.41;;;23.32;72.96
11314;BME280;5712;48.858;9.206;2022-07-22T07:27:01;98462.97;;;23.20;72.37
11314;BME280;5712;48.858;9.206;2022-07-22T07:29:28;98450.38;;;23.12;72.95
11314;BME280;5712;48.858;9.206;2022-07-22T07:31:54;98451.00;;;23.22;73.98
11314;BME280;5712;48.858;9.206;2022-07-22T07:34:21;98454.53;;;23.15;74.97
11314;BME280;5712;48.858;9.206;2022-07-22T07:36:47;98451.03;;;23.14;75.49
11314;BME280;5712;48.858;9.206;2022-07-22T07:39:15;98448.31;;;23.14;74.34
11314;BME280;5712;48.858;9.206;2022-07-22T07:41:42;98444.13;;;23.12;74.96
11314;BME280;5712;48.858;9.206;2022-07-22T07:44:08;98447.75;;;23.27;75.92
11314;BME280;5712;48.858;9.206;2022-07-22T07:46:36;98440.19;;;23.30;74.05
11314;BME280;5712;48.858;9.206;2022-07-22T07:49:02;98443.06;;;23.21;73.82
11314;BME280;5712;48.858;9.206;2022-07-22T07:51:29;98441.16;;;23.29;75.49
11314;BME280;5712;48.858;9.206;2022-07-22T07:53:56;98437.72;;;23.43;75.21
11314;BME280;5712;48.858;9.206;2022-07-22T07:56:24;98435.38;;;23.63;76.21
11314;BME280;5712;48.858;9.206;2022-07-22T07:58:51;98434.00;;;23.89;71.49
11314;BME280;5712;48.858;9.206;2022-07-22T08:01:17;98431.31;;;23.89;71.88
11314;BME280;5712;48.858;9.206;2022-07-22T08:03:44;98433.28;;;23.95;73.49
11314;BME280;5712;48.858;9.206;2022-07-22T08:06:10;98430.50;;;24.03;72.31
11314;BME280;5712;48.858;9.206;2022-07-22T08:08:37;98433.06;;;24.19;69.64
11314;BME280;5712;48.858;9.206;2022-07-22T08:11:04;98432.47;;;24.09;70.36
11314;BME280;5712;48.858;9.206;2022-07-22T08:13:32;98431.47;;;24.10;71.41
11314;BME280;5712;48.858;9.206;2022-07-22T08:15:58;98429.34;;;24.20;72.12
11314;BME280;5712;48.858;9.206;2022-07-22T08:18:26;98432.50;;;24.24;68.80
11314;BME280;5712;48.858;9.206;2022-07-22T08:20:52;98426.28;;;24.23;68.49
11314;BME280;5712;48.858;9.206;2022-07-22T08:23:19;98429.88;;;24.16;69.68
11314;BME280;5712;48.858;9.206;2022-07-22T08:25:45;98431.00;;;24.21;70.94
11314;BME280;5712;48.858;9.206;2022-07-22T08:28:12;98430.56;;;24.32;69.86
11314;BME280;5712;48.858;9.206;2022-07-22T08:30:40;98428.09;;;24.60;69.47
11314;BME280;5712;48.858;9.206;2022-07-22T08:33:06;98427.16;;;24.67;67.87
11314;BME280;5712;48.858;9.206;2022-07-22T08:35:33;98422.78;;;24.66;67.37
11314;BME280;5712;48.858;9.206;2022-07-22T08:38:00;98422.19;;;24.56;65.96
11314;BME280;5712;48.858;9.206;2022-07-22T08:40:27;98414.41;;;24.61;68.29
11314;BME280;5712;48.858;9.206;2022-07-22T08:42:53;98418.00;;;24.83;67.11
11314;BME280;5712;48.858;9.206;2022-07-22T08:45:20;98407.19;;;24.83;67.24
11314;BME280;5712;48.858;9.206;2022-07-22T08:47:50;98410.19;;;24.88;66.35
11314;BME280;5712;48.858;9.206;2022-07-22T08:50:17;98403.72;;;25.03;66.02
11314;BME280;5712;48.858;9.206;2022-07-22T08:52:44;98394.41;;;24.91;66.20
11314;BME280;5712;48.858;9.206;2022-07-22T08:55:10;98402.34;;;24.93;66.89
11314;BME280;5712;48.858;9.206;2022-07-22T08:57:37;98400.56;;;24.85;66.45
11314;BME280;5712;48.858;9.206;2022-07-22T09:00:09;98394.47;;;24.98;65.89
11314;BME280;5712;48.858;9.206;2022-07-22T09:02:38;98394.72;;;25.17;66.88
11314;BME280;5712;48.858;9.206;2022-07-22T09:05:08;98393.16;;;25.44;64.67
11314;BME280;5712;48.858;9.206;2022-07-22T09:07:37;98390.84;;;25.41;64.67
11314;BME280;5712;48.858;9.206;2022-07-22T09:10:06;98381.88;;;25.40;66.15
11314;BME280;5712;48.858;9.206;2022-07-22T09:12:33;98379.00;;;25.42;64.41
11314;BME280;5712;48.858;9.206;2022-07-22T09:15:02;98389.06;;;25.48;64.83
11314;BME280;5712;48.858;9.206;2022-07-22T09:17:30;98391.81;;;25.54;65.44
11314;BME280;5712;48.858;9.206;2022-07-22T09:19:58;98383.56;;;25.62;63.08
11314;BME280;5712;48.858;9.206;2022-07-22T09:22:36;98389.44;;;25.66;64.02
11314;BME280;5712;48.858;9.206;2022-07-22T09:25:20;98389.59;;;25.85;65.13
11314;BME280;5712;48.858;9.206;2022-07-22T09:27:49;98385.59;;;26.02;62.49
11314;BME280;5712;48.858;9.206;2022-07-22T09:30:18;98385.31;;;26.18;63.63
11314;BME280;5712;48.858;9.206;2022-07-22T09:32:45;98391.19;;;26.28;61.40
11314;BME280;5712;48.858;9.206;2022-07-22T09:35:11;98391.63;;;26.25;60.83
11314;BME280;5712;48.858;9.206;2022-07-22T09:37:51;98380.69;;;26.12;62.36
11314;BME280;5712;48.858;9.206;2022-07-22T09:40:20;98379.84;;;26.12;61.88
11314;BME280;5712;48.858;9.206;2022-07-22T09:42:48;98383.69;;;26.24;62.86
11314;BME280;5712;48.858;9.206;2022-07-22T09:45:16;98377.09;;;26.39;61.50
11314;BME280;5712;48.858;9.206;2022-07-22T09:47:43;98376.75;;;26.49;59.05
11314;BME280;5712;48.858;9.206;2022-07-22T09:50:18;98380.69;;;26.46;58.76
11314;BME280;5712;48.858;9.206;2022-07-22T09:52:46;98378.88;;;26.53;60.51
11314;BME280;5712;48.858;9.206;2022-07-22T09:55:15;98371.66;;;26.67;58.24
11314;BME280;5712;48.858;9.206;2022-07-22T09:57:42;98368.41;;;26.84;57.43
11314;BME280;5712;48.858;9.206;2022-07-22T10:00:09;98370.13;;;26.98;58.72
11314;BME280;5712;48.858;9.206;2022-07-22T10:02:40;98359.59;;;27.16;58.96
11314;BME280;5712;48.858;9.206;2022-07-22T10:05:08;98364.66;;;27.38;57.72
11314;BME280;5712;48.858;9.206;2022-07-22T10:07:36;98356.69;;;27.37;56.00
11314;BME280;5712;48.858;9.206;2022-07-22T10:10:04;98350.25;;;27.44;56.93
11314;BME280;5712;48.858;9.206;2022-07-22T10:12:33;98345.84;;;27.50;56.68
11314;BME280;5712;48.858;9.206;2022-07-22T10:15:01;98345.22;;;27.48;54.04
11314;BME280;5712;48.858;9.206;2022-07-22T10:17:27;98339.19;;;27.46;54.75
11314;BME280;5712;48.858;9.206;2022-07-22T10:19:55;98328.13;;;27.48;54.47
11314;BME280;5712;48.858;9.206;2022-07-22T10:22:50;98330.00;;;27.60;53.97
11314;BME280;5712;48.858;9.206;2022-07-22T10:25:19;98317.69;;;27.64;56.58
11314;BME280;5712;48.858;9.206;2022-07-22T10:27:50;98324.16;;;27.76;56.47
11314;BME280;5712;48.858;9.206;2022-07-22T10:30:19;98323.97;;;27.84;53.37
11314;BME280;5712;48.858;9.206;2022-07-22T10:33:01;98323.50;;;27.74;52.87
11314;BME280;5712;48.858;9.206;2022-07-22T10:35:28;98319.97;;;27.73;53.07
11314;BME280;5712;48.858;9.206;2022-07-22T10:37:57;98319.16;;;27.79;54.16
11314;BME280;5712;48.858;9.206;2022-07-22T10:40:25;98303.50;;;27.88;55.68
11314;BME280;5712;48.858;9.206;2022-07-22T10:43:09;98305.75;;;28.04;57.83
11314;BME280;5712;48.858;9.206;2022-07-22T10:45:38;98295.53;;;28.06;54.74
11314;BME280;5712;48.858;9.206;2022-07-22T10:48:06;98307.84;;;28.15;54.53
11314;BME280;5712;48.858;9.206;2022-07-22T10:50:43;98290.25;;;28.24;52.70
11314;BME280;5712;48.858;9.206;2022-07-22T10:53:11;98286.91;;;28.22;52.16
11314;BME280;5712;48.858;9.206;2022-07-22T10:55:39;98288.34;;;28.31;54.52
11314;BME280;5712;48.858;9.206;2022-07-22T10:58:43;98293.75;;;28.50;52.52
11314;BME280;5712;48.858;9.206;2022-07-22T11:01:12;98288.03;;;28.65;51.65
11314;BME280;5712;48.858;9.206;2022-07-22T11:03:39;98287.63;;;28.68;51.90
11314;BME280;5712;48.858;9.206;2022-07-22T11:06:13;98288.84;;;28.72;53.47
11314;BME280;5712;48.858;9.206;2022-07-22T11:08:40;98284.22;;;28.79;53.68
11314;BME280;5712;48.858;9.206;2022-07-22T11:11:06;98277.66;;;28.93;51.08
11314;BME280;5712;48.858;9.206;2022-07-22T11:13:34;98277.09;;;28.78;49.58
11314;BME280;5712;48.858;9.206;2022-07-22T11:16:16;98276.97;;;28.60;50.11
11314;BME280;5712;48.858;9.206;2022-07-22T11:18:48;98284.31;;;28.59;50.46
11314;BME280;5712;48.858;9.206;2022-07-22T11:21:16;98285.13;;;28.60;50.50
11314;BME280;5712;48.858;9.206;2022-07-22T11:23:44;98271.41;;;28.42;49.75
11314;BME280;5712;48.858;9.206;2022-07-22T11:26:14;98274.22;;;28.60;50.94
11314;BME280;5712;48.858;9.206;2022-07-22T11:28:41;98265.31;;;28.90;50.30
11314;BME280;5712;48.858;9.206;2022-07-22T11:31:12;98264.69;;;28.95;52.21
11314;BME280;5712;48.858;9.206;2022-07-22T11:33:41;98253.56;;;29.03;51.19
11314;BME280;5712;48.858;9.206;2022-07-22T11:36:08;98253.94;;;29.06;50.71
11314;BME280;5712;48.858;9.206;2022-07-22T11:38:46;98248.00;;;29.16;49.17
11314;BME280;5712;48.858;9.206;2022-07-22T11:41:14;98243.78;;;29.20;49.98
11314;BME280;5712;48.858;9.206;2022-07-22T11:43:41;98236.56;;;29.32;50.22
11314;BME280;5712;48.858;9.206;2022-07-22T11:46:08;98235.56;;;29.57;49.03
11314;BME280;5712;48.858;9.206;2022-07-22T11:48:35;98234.56;;;29.45;49.17
11314;BME280;5712;48.858;9.206;2022-07-22T11:51:05;98229.06;;;29.27;48.14
11314;BME280;5712;48.858;9.206;2022-07-22T11:53:32;98226.56;;;29.26;48.17
11314;BME280;5712;48.858;9.206;2022-07-22T11:55:59;98223.66;;;29.21;49.61
11314;BME280;5712;48.858;9.206;2022-07-22T11:58:37;98213.06;;;29.13;46.76
11314;BME280;5712;48.858;9.206;2022-07-22T12:01:04;98211.84;;;29.33;47.38
11314;BME280;5712;48.858;9.206;2022-07-22T12:03:33;98204.34;;;29.29;46.14
11314;BME280;5712;48.858;9.206;2022-07-22T12:06:00;98200.28;;;29.38;45.51
11314;BME280;5712;48.858;9.206;2022-07-22T12:08:28;98202.28;;;29.49;47.84
11314;BME280;5712;48.858;9.206;2022-07-22T12:10:56;98201.41;;;29.55;45.45
11314;BME280;5712;48.858;9.206;2022-07-22T12:13:28;98199.91;;;29.59;44.95
11314;BME280;5712;48.858;9.206;2022-07-22T12:15:55;98194.00;;;29.62;46.32
11314;BME280;5712;48.858;9.206;2022-07-22T12:18:24;98185.63;;;29.63;46.17
11314;BME280;5712;48.858;9.206;2022-07-22T12:20:52;98176.34;;;29.71;47.80
11314;BME280;5712;48.858;9.206;2022-07-22T12:23:19;98180.63;;;29.96;47.95
11314;BME280;5712;48.858;9.206;2022-07-22T12:25:56;98173.91;;;29.99;46.75
11314;BME280;5712;48.858;9.206;2022-07-22T12:28:23;98171.81;;;30.01;46.45
11314;BME280;5712;48.858;9.206;2022-07-22T12:30:51;98178.44;;;30.05;46.52
11314;BME280;5712;48.858;9.206;2022-07-22T12:33:19;98162.09;;;30.05;45.46
11314;BME280;5712;48.858;9.206;2022-07-22T12:35:58;98161.66;;;30.26;45.47
11314;BME280;5712;48.858;9.206;2022-07-22T12:38:25;98158.94;;;30.26;46.19
11314;BME280;5712;48.858;9.206;2022-07-22T12:40:53;98161.34;;;30.34;45.57
11314;BME280;5712;48.858;9.206;2022-07-22T12:43:24;98168.75;;;30.45;43.93
11314;BME280;5712;48.858;9.206;2022-07-22T12:45:51;98165.56;;;30.30;43.82
11314;BME280;5712;48.858;9.206;2022-07-22T12:48:17;98163.84;;;30.35;43.45
11314;BME280;5712;48.858;9.206;2022-07-22T12:50:54;98160.91;;;30.37;45.50
11314;BME280;5712;48.858;9.206;2022-07-22T12:53:22;98150.91;;;30.31;44.80
11314;BME280;5712;48.858;9.206;2022-07-22T12:55:50;98158.28;;;30.42;45.75
11314;BME280;5712;48.858;9.206;2022-07-22T12:58:19;98154.91;;;30.58;45.38
11314;BME280;5712;48.858;9.206;2022-07-22T13:00:47;98150.25;;;30.76;45.70
11314;BME280;5712;48.858;9.206;2022-07-22T13:03:14;98145.75;;;30.70;46.25
11314;BME280;5712;48.858;9.206;2022-07-22T13:05:44;98146.47;;;30.77;45.33
11314;BME280;5712;48.858;9.206;2022-07-22T13:08:12;98150.16;;;30.83;46.08
11314;BME280;5712;48.858;9.206;2022-07-22T13:10:40;98150.88;;;30.90;44.30